createdAt,value
2022-08-11T00:01:54.460Z,17.96
2022-08-11T00:05:01.551Z,17.93
2022-08-11T00:08:05.164Z,17.91
2022-08-11T00:11:10.787Z,17.88
2022-08-11T00:14:22.648Z,17.85
2022-08-11T00:17:32.917Z,17.85
2022-08-11T00:20:41.889Z,17.82
2022-08-11T00:23:47.414Z,17.81
2022-08-11T00:26:54.908Z,17.79
2022-08-11T00:29:58.349Z,17.77
2022-08-11T00:33:01.430Z,17.73
2022-08-11T00:36:06.191Z,17.71
2022-08-11T00:39:10.726Z,17.69
2022-08-11T00:42:40.650Z,17.67
2022-08-11T00:45:54.044Z,17.66
2022-08-11T00:49:25.548Z,17.65
2022-08-11T00:52:49.702Z,17.64
2022-08-11T00:55:56.172Z,17.63
2022-08-11T00:59:35.249Z,17.62
2022-08-11T01:03:28.494Z,17.61
2022-08-11T01:06:49.631Z,17.59
2022-08-11T01:10:06.964Z,17.58
2022-08-11T01:13:19.375Z,17.55
2022-08-11T01:16:50.151Z,17.53
2022-08-11T01:20:47.328Z,17.50
2022-08-11T01:24:11.027Z,17.47
2022-08-11T01:27:32.532Z,17.43
2022-08-11T01:30:44.056Z,17.40
2022-08-11T01:34:04.852Z,17.37
2022-08-11T01:37:44.920Z,17.35
2022-08-11T01:41:12.760Z,17.32
2022-08-11T01:44:44.806Z,17.32
2022-08-11T01:48:02.585Z,17.29
2022-08-11T01:51:30.298Z,17.27
2022-08-11T01:54:49.030Z,17.26
2022-08-11T01:58:13.432Z,17.25
2022-08-11T02:01:41.044Z,17.23
2022-08-11T02:05:11.978Z,17.23
2022-08-11T02:08:44.775Z,17.23
2022-08-11T02:11:58.485Z,17.22
2022-08-11T02:15:26.424Z,17.21
2022-08-11T02:18:54.911Z,17.20
2022-08-11T02:22:24.534Z,17.18
2022-08-11T02:25:41.514Z,17.16
2022-08-11T02:28:55.837Z,17.14
2022-08-11T02:32:38.252Z,17.12
2022-08-11T02:36:06.509Z,17.08
2022-08-11T02:39:19.065Z,17.06
2022-08-11T02:42:36.164Z,17.03
2022-08-11T02:46:18.629Z,17.01
2022-08-11T02:50:02.540Z,16.96
2022-08-11T02:53:19.821Z,16.92
2022-08-11T02:56:44.787Z,16.88
2022-08-11T02:59:51.054Z,16.84
2022-08-11T03:03:12.033Z,16.81
2022-08-11T03:06:30.178Z,16.78
2022-08-11T03:09:36.132Z,16.75
2022-08-11T03:13:25.615Z,16.73
2022-08-11T03:16:46.670Z,16.69
2022-08-11T03:20:03.398Z,16.66
2022-08-11T03:23:23.893Z,16.62
2022-08-11T03:26:44.408Z,16.58
2022-08-11T03:30:06.448Z,16.56
2022-08-11T03:33:43.716Z,16.54
2022-08-11T03:37:16.029Z,16.52
2022-08-11T03:42:03.452Z,16.50
2022-08-11T03:44:56.706Z,16.50
2022-08-11T03:48:21.294Z,16.48
2022-08-11T03:51:44.942Z,16.48
2022-08-11T03:55:21.184Z,16.47
2022-08-11T03:58:59.181Z,16.47
2022-08-11T04:02:17.206Z,16.47
2022-08-11T04:05:35.186Z,16.47
2022-08-11T04:09:10.051Z,16.47
2022-08-11T04:12:36.462Z,16.49
2022-08-11T04:16:11.788Z,16.49
2022-08-11T04:19:46.047Z,16.51
2022-08-11T04:23:03.654Z,16.52
2022-08-11T04:26:37.558Z,16.53
2022-08-11T04:30:05.595Z,16.55
2022-08-11T04:33:36.587Z,16.56
2022-08-11T04:37:32.250Z,16.59
2022-08-11T04:40:55.084Z,16.62
2022-08-11T04:44:32.843Z,16.64
2022-08-11T04:48:04.155Z,16.66
2022-08-11T04:51:31.800Z,16.69
2022-08-11T04:55:21.233Z,16.73
2022-08-11T04:58:48.636Z,16.77
2022-08-11T05:01:54.277Z,16.82
2022-08-11T05:05:24.917Z,16.88
2022-08-11T05:09:01.556Z,16.96
2022-08-11T05:12:36.863Z,17.05
2022-08-11T05:16:21.886Z,17.15
2022-08-11T05:19:43.460Z,17.27
2022-08-11T05:23:09.998Z,17.37
2022-08-11T05:26:47.145Z,17.48
2022-08-11T05:30:19.361Z,17.61
2022-08-11T05:33:49.845Z,17.75
2022-08-11T05:37:26.277Z,17.89
2022-08-11T05:40:51.303Z,18.07
2022-08-11T05:44:20.653Z,18.24
2022-08-11T05:47:45.030Z,18.40
2022-08-11T05:51:16.509Z,18.57
2022-08-11T05:54:38.885Z,18.74
2022-08-11T05:57:51.245Z,18.90
2022-08-11T06:00:55.126Z,19.05
2022-08-11T06:04:15.753Z,19.20
2022-08-11T06:07:26.998Z,19.36
2022-08-11T06:10:35.971Z,19.49
2022-08-11T06:13:45.307Z,19.63
2022-08-11T06:16:50.068Z,19.76
2022-08-11T06:20:07.096Z,19.87
2022-08-11T06:23:11.290Z,19.99
2022-08-11T06:26:15.574Z,20.10
2022-08-11T06:29:20.429Z,20.21
2022-08-11T06:32:45.733Z,20.33
2022-08-11T06:36:00.345Z,20.46
2022-08-11T06:39:16.439Z,20.57
2022-08-11T06:42:37.367Z,20.71
2022-08-11T06:46:04.543Z,20.85
2022-08-11T06:49:30.612Z,20.99
2022-08-11T06:52:38.479Z,21.14
2022-08-11T06:56:04.244Z,21.27
2022-08-11T06:59:28.374Z,21.42
2022-08-11T07:02:37.105Z,21.56
2022-08-11T07:05:46.066Z,21.71
2022-08-11T07:09:33.283Z,21.84
2022-08-11T07:13:01.432Z,22.01
2022-08-11T07:16:11.034Z,22.15
2022-08-11T07:19:42.393Z,22.29
2022-08-11T07:23:14.618Z,22.45
2022-08-11T07:26:39.645Z,22.61
2022-08-11T07:29:46.041Z,22.77
2022-08-11T07:32:55.650Z,22.93
2022-08-11T07:36:02.087Z,23.08
2022-08-11T07:39:15.366Z,23.22
2022-08-11T07:42:23.328Z,23.37
2022-08-11T07:45:46.080Z,23.50
2022-08-11T07:49:08.700Z,23.67
2022-08-11T07:52:30.809Z,23.84
2022-08-11T07:55:50.213Z,24.00
2022-08-11T07:59:15.477Z,24.12
2022-08-11T08:02:38.803Z,24.15
2022-08-11T08:06:01.439Z,24.07
2022-08-11T08:09:25.070Z,23.91
2022-08-11T08:12:48.119Z,23.69
2022-08-11T08:16:11.702Z,23.45
2022-08-11T08:19:17.387Z,23.23
2022-08-11T08:22:38.367Z,23.06
2022-08-11T08:25:45.631Z,22.95
2022-08-11T08:28:48.806Z,22.89
2022-08-11T08:31:54.863Z,22.88
2022-08-11T08:34:59.816Z,22.88
2022-08-11T08:38:03.908Z,22.89
2022-08-11T08:41:08.048Z,22.94
2022-08-11T08:44:37.194Z,23.02
2022-08-11T08:47:52.960Z,23.19
2022-08-11T08:51:29.222Z,23.47
2022-08-11T08:54:56.463Z,23.84
2022-08-11T08:58:01.107Z,24.12
2022-08-11T09:01:05.653Z,24.27
2022-08-11T09:04:11.838Z,24.37
2022-08-11T09:07:18.436Z,24.44
2022-08-11T09:10:21.717Z,24.56
2022-08-11T09:13:24.913Z,24.66
2022-08-11T09:16:28.131Z,24.79
2022-08-11T09:19:32.144Z,25.00
2022-08-11T09:23:24.330Z,25.16
2022-08-11T09:26:38.536Z,25.39
2022-08-11T09:29:41.346Z,25.65
2022-08-11T09:32:44.657Z,25.85
2022-08-11T09:35:51.386Z,25.94
2022-08-11T09:39:13.199Z,25.80
2022-08-11T09:42:23.407Z,25.64
2022-08-11T09:45:28.484Z,25.66
2022-08-11T09:48:46.236Z,25.82
2022-08-11T09:52:02.271Z,25.91
2022-08-11T09:55:12.344Z,25.84
2022-08-11T09:58:41.756Z,25.76
2022-08-11T10:01:49.296Z,25.67
2022-08-11T10:04:54.387Z,25.72
2022-08-11T10:07:58.637Z,25.82
2022-08-11T10:11:06.850Z,25.85
2022-08-11T10:14:33.406Z,25.76
2022-08-11T10:18:03.047Z,25.79
2022-08-11T10:21:14.678Z,25.95
2022-08-11T10:24:36.874Z,26.11
2022-08-11T10:28:32.810Z,26.32
2022-08-11T10:31:30.510Z,26.52
2022-08-11T10:34:54.495Z,26.71
2022-08-11T10:38:07.575Z,26.82
2022-08-11T10:41:32.764Z,26.76
2022-08-11T10:44:47.821Z,26.72
2022-08-11T10:47:54.519Z,26.86
2022-08-11T10:51:14.168Z,27.06
2022-08-11T10:54:36.331Z,27.18
2022-08-11T10:58:04.299Z,27.04
2022-08-11T11:01:09.829Z,26.73
2022-08-11T11:04:12.775Z,26.44
2022-08-11T11:07:24.983Z,26.19
2022-08-11T11:10:28.230Z,25.93
2022-08-11T11:13:55.231Z,25.72
2022-08-11T11:17:14.155Z,25.66
2022-08-11T11:20:36.382Z,25.83
2022-08-11T11:24:00.163Z,26.07
2022-08-11T11:27:22.241Z,26.28
2022-08-11T11:30:33.170Z,26.23
2022-08-11T11:34:12.038Z,26.07
2022-08-11T11:37:19.247Z,25.83
2022-08-11T11:40:28.748Z,25.59
2022-08-11T11:43:37.149Z,25.44
2022-08-11T11:46:41.499Z,25.43
2022-08-11T11:49:46.163Z,25.59
2022-08-11T11:52:50.160Z,25.88
2022-08-11T11:55:53.616Z,26.12
2022-08-11T11:59:16.112Z,26.17
2022-08-11T12:02:19.666Z,26.13
2022-08-11T12:05:22.850Z,25.97
2022-08-11T12:08:27.889Z,25.89
2022-08-11T12:11:50.574Z,26.05
2022-08-11T12:14:54.831Z,26.31
2022-08-11T12:17:59.510Z,26.56
2022-08-11T12:21:04.110Z,26.60
2022-08-11T12:24:29.156Z,26.46
2022-08-11T12:27:32.922Z,26.36
2022-08-11T12:30:36.752Z,26.40
2022-08-11T12:33:44.616Z,26.53
2022-08-11T12:36:57.782Z,26.72
2022-08-11T12:40:49.553Z,26.93
2022-08-11T12:44:06.791Z,27.05
2022-08-11T12:47:11.190Z,27.18
2022-08-11T12:50:40.809Z,27.34
2022-08-11T12:53:53.193Z,27.50
2022-08-11T12:57:36.204Z,27.64
2022-08-11T13:00:59.182Z,27.78
2022-08-11T13:04:21.551Z,27.84
2022-08-11T13:07:27.168Z,27.67
2022-08-11T13:11:09.176Z,27.47
2022-08-11T13:14:15.343Z,27.43
2022-08-11T13:17:21.939Z,27.42
2022-08-11T13:20:48.498Z,27.40
2022-08-11T13:23:59.536Z,27.35
2022-08-11T13:27:08.107Z,27.37
2022-08-11T13:30:31.819Z,27.40
2022-08-11T13:33:42.214Z,27.46
2022-08-11T13:36:46.023Z,27.53
2022-08-11T13:39:49.307Z,27.60
2022-08-11T13:42:53.579Z,27.56
2022-08-11T13:46:16.952Z,27.40
2022-08-11T13:49:21.317Z,27.18
2022-08-11T13:58:08.910Z,26.91
2022-08-11T14:02:47.917Z,26.96
2022-08-11T14:05:53.916Z,26.83
2022-08-11T14:08:58.056Z,26.63
2022-08-11T14:12:25.872Z,26.43
2022-08-11T14:15:34.105Z,26.18
2022-08-11T14:18:43.152Z,25.89
2022-08-11T14:22:07.815Z,25.41
2022-08-11T14:25:13.073Z,24.80
2022-08-11T14:28:32.981Z,24.29
2022-08-11T14:31:40.689Z,23.82
2022-08-11T14:34:45.180Z,23.44
2022-08-11T14:37:48.568Z,23.10
2022-08-11T14:41:11.337Z,22.78
2022-08-11T14:44:33.514Z,22.51
2022-08-11T14:47:39.390Z,22.28
2022-08-11T14:50:42.668Z,22.09
2022-08-11T14:53:58.359Z,21.92
2022-08-11T14:57:03.332Z,21.76
2022-08-11T15:00:15.474Z,21.62
2022-08-11T15:03:19.493Z,21.50
2022-08-11T15:06:22.769Z,21.39
2022-08-11T15:09:25.926Z,21.31
2022-08-11T15:12:33.192Z,21.25
2022-08-11T15:15:56.017Z,21.18
2022-08-11T15:18:59.900Z,21.11
2022-08-11T15:22:26.069Z,21.07
2022-08-11T15:25:34.605Z,21.03
2022-08-11T15:29:02.856Z,21.03
2022-08-11T15:32:20.457Z,21.03
2022-08-11T15:35:42.478Z,21.05
2022-08-11T15:38:58.086Z,21.05
2022-08-11T15:42:33.555Z,21.07
2022-08-11T15:45:52.029Z,21.06
2022-08-11T15:49:07.452Z,21.06
2022-08-11T15:52:16.181Z,21.09
2022-08-11T15:55:21.437Z,21.11
2022-08-11T15:58:47.875Z,21.12
2022-08-11T16:02:35.888Z,21.12
2022-08-11T16:05:46.721Z,21.09
2022-08-11T16:08:59.643Z,21.03
2022-08-11T16:12:05.173Z,20.99
2022-08-11T16:15:29.505Z,20.95
2022-08-11T16:18:41.998Z,20.91
2022-08-11T16:21:46.132Z,20.89
2022-08-11T16:27:03.581Z,20.86
2022-08-11T16:28:17.005Z,20.84
2022-08-11T16:31:22.158Z,20.83
2022-08-11T16:34:44.463Z,20.83
2022-08-11T16:38:06.366Z,20.82
2022-08-11T16:41:16.085Z,20.83
2022-08-11T16:44:39.020Z,20.83
2022-08-11T16:48:03.554Z,20.83
2022-08-11T16:51:10.582Z,20.83
2022-08-11T16:54:14.076Z,20.83
2022-08-11T16:57:44.191Z,20.82
2022-08-11T17:00:49.925Z,20.82
2022-08-11T17:04:31.203Z,20.81
2022-08-11T17:07:57.195Z,20.81
2022-08-11T17:11:24.466Z,20.81
2022-08-11T17:14:39.890Z,20.80
2022-08-11T17:17:43.309Z,20.80
2022-08-11T17:20:46.602Z,20.79
2022-08-11T17:23:55.176Z,20.78
2022-08-11T17:27:00.935Z,20.77
2022-08-11T17:30:09.606Z,20.75
2022-08-11T17:33:32.551Z,20.74
2022-08-11T17:36:41.526Z,20.72
2022-08-11T17:39:49.481Z,20.70
2022-08-11T17:43:12.915Z,20.67
2022-08-11T17:46:36.995Z,20.66
2022-08-11T17:49:41.011Z,20.64
2022-08-11T17:53:04.592Z,20.61
2022-08-11T17:56:27.799Z,20.58
2022-08-11T17:59:51.844Z,20.55
2022-08-11T18:03:14.840Z,20.52
2022-08-11T18:06:19.422Z,20.48
2022-08-11T18:09:42.942Z,20.45
2022-08-11T18:13:07.170Z,20.41
2022-08-11T18:16:28.986Z,20.37
2022-08-11T18:19:50.465Z,20.34
2022-08-11T18:23:15.188Z,20.32
2022-08-11T18:26:42.373Z,20.29
2022-08-11T18:30:07.607Z,20.25
2022-08-11T18:33:56.695Z,20.23
2022-08-11T18:37:29.579Z,20.19
2022-08-11T18:40:54.287Z,20.18
2022-08-11T18:44:20.943Z,20.16
2022-08-11T18:47:45.097Z,20.14
2022-08-11T18:51:31.247Z,20.12
2022-08-11T18:54:59.962Z,20.09
2022-08-11T18:58:26.201Z,20.07
2022-08-11T19:01:50.393Z,20.04
2022-08-11T19:05:14.180Z,20.02
2022-08-11T19:08:38.355Z,19.99
2022-08-11T19:12:00.436Z,19.97
2022-08-11T19:15:24.716Z,19.95
2022-08-11T19:18:48.326Z,19.93
2022-08-11T19:22:10.935Z,19.91
2022-08-11T19:25:34.582Z,19.90
2022-08-11T19:29:00.828Z,19.87
2022-08-11T19:32:23.638Z,19.85
2022-08-11T19:35:46.444Z,19.83
2022-08-11T19:39:10.244Z,19.80
2022-08-11T19:42:34.570Z,19.77
2022-08-11T19:45:58.591Z,19.75
2022-08-11T19:49:21.648Z,19.74
2022-08-11T19:52:45.095Z,19.73
2022-08-11T19:56:16.099Z,19.71
2022-08-11T19:59:54.055Z,19.70
2022-08-11T20:03:22.261Z,19.69
2022-08-11T20:11:38.681Z,19.65
2022-08-11T20:15:02.843Z,19.62
2022-08-11T20:18:29.046Z,19.59
2022-08-11T20:21:53.576Z,19.55
2022-08-11T20:25:18.361Z,19.52
2022-08-11T20:28:40.058Z,19.47
2022-08-11T20:32:04.215Z,19.42
2022-08-11T20:35:28.582Z,19.37
2022-08-11T20:38:53.451Z,19.32
2022-08-11T20:42:17.181Z,19.26
2022-08-11T20:45:55.180Z,19.21
2022-08-11T20:49:21.262Z,19.15
2022-08-11T20:52:48.002Z,19.10
2022-08-11T20:56:10.665Z,19.06
2022-08-11T20:59:49.370Z,19.02
2022-08-11T21:03:16.077Z,18.97
2022-08-11T21:07:00.083Z,18.93
2022-08-11T21:10:27.758Z,18.89
2022-08-11T21:13:56.083Z,18.85
2022-08-11T21:17:27.078Z,18.82
2022-08-11T21:20:51.304Z,18.79
2022-08-11T21:24:16.219Z,18.76
2022-08-11T21:27:39.913Z,18.74
2022-08-11T21:31:02.798Z,18.69
2022-08-11T21:34:26.507Z,18.66
2022-08-11T21:37:50.309Z,18.63
2022-08-11T21:41:13.884Z,18.61
2022-08-11T21:44:36.864Z,18.58
2022-08-11T21:48:01.100Z,18.55
2022-08-11T21:51:23.468Z,18.52
2022-08-11T21:54:45.922Z,18.49
2022-08-11T21:58:07.952Z,18.45
2022-08-11T22:01:30.875Z,18.43
2022-08-11T22:04:56.362Z,18.38
2022-08-11T22:08:17.908Z,18.33
2022-08-11T22:11:39.497Z,18.28
2022-08-11T22:15:01.234Z,18.25
2022-08-11T22:18:23.237Z,18.21
2022-08-11T22:22:03.315Z,18.18
2022-08-11T22:25:27.375Z,18.14
2022-08-11T22:29:00.164Z,18.10
2022-08-11T22:32:21.489Z,18.07
2022-08-11T22:35:43.324Z,18.03
2022-08-11T22:39:06.975Z,18.00
2022-08-11T22:42:33.498Z,17.97
2022-08-11T22:45:55.395Z,17.95
2022-08-11T22:49:17.841Z,17.92
2022-08-11T22:52:40.483Z,17.91
2022-08-11T22:56:01.984Z,17.90
2022-08-11T22:59:26.275Z,17.89
2022-08-11T23:02:48.004Z,17.84
2022-08-11T23:06:10.064Z,17.82
2022-08-11T23:09:32.061Z,17.81
2022-08-11T23:12:54.965Z,17.80
2022-08-11T23:16:17.458Z,17.78
2022-08-11T23:20:01.719Z,17.76
2022-08-11T23:23:21.267Z,17.75
2022-08-11T23:26:47.180Z,17.71
2022-08-11T23:30:12.348Z,17.68
2022-08-11T23:33:36.218Z,17.65
2022-08-11T23:36:58.118Z,17.62
2022-08-11T23:40:20.147Z,17.58
2022-08-11T23:43:44.573Z,17.56
2022-08-11T23:47:08.444Z,17.54
2022-08-11T23:50:30.573Z,17.52
2022-08-11T23:53:52.492Z,17.48
2022-08-11T23:57:14.482Z,17.45
